<?xml version="1.0" encoding="UTF-8" standalone="no" ?>
<gpx xmlns="http://www.topografix.com/GPX/1/1" xmlns:xsi="http://www.w3.org/2001/XMLSchema-instance" xsi:schemaLocation="http://www.topografix.com/GPX/1/1 http://www.topografix.com/GPX/1/1/gpx.xsd" version="1.1" creator="VisuGPX - https://www.visugpx.com">
  <metadata>
    <name>Buttes de Rosne Marines Hénonville 27km-</name>
  </metadata>
  <trk>
    <name><![CDATA[Buttes de Rosne Marines Hénonville 27km-15883686]]></name>
    <trkseg>
      <trkpt lat="49.14617" lon="1.98341">
        <ele>117.4</ele>
        <time>2023-09-16T19:24:51Z</time>
      </trkpt>
      <trkpt lat="49.14627" lon="1.9836">
        <ele>118</ele>
        <time>2023-09-16T19:25:12Z</time>
      </trkpt>
      <trkpt lat="49.14659" lon="1.98409">
        <ele>118</ele>
        <time>2023-09-16T19:26:13Z</time>
      </trkpt>
      <trkpt lat="49.14675" lon="1.9843">
        <ele>118.5</ele>
        <time>2023-09-16T19:26:41Z</time>
      </trkpt>
      <trkpt lat="49.14692" lon="1.98445">
        <ele>119</ele>
        <time>2023-09-16T19:27:07Z</time>
      </trkpt>
      <trkpt lat="49.14728" lon="1.98463">
        <ele>120.3</ele>
        <time>2023-09-16T19:27:58Z</time>
      </trkpt>
      <trkpt lat="49.14732" lon="1.98453">
        <ele>120.6</ele>
        <time>2023-09-16T19:28:08Z</time>
      </trkpt>
      <trkpt lat="49.14764" lon="1.98367">
        <ele>121.3</ele>
        <time>2023-09-16T19:29:34Z</time>
      </trkpt>
      <trkpt lat="49.14786" lon="1.98348">
        <ele>123.1</ele>
        <time>2023-09-16T19:30:08Z</time>
      </trkpt>
      <trkpt lat="49.1487" lon="1.98263">
        <ele>128.8</ele>
        <time>2023-09-16T19:32:22Z</time>
      </trkpt>
      <trkpt lat="49.14872" lon="1.98267">
        <ele>129</ele>
        <time>2023-09-16T19:32:27Z</time>
      </trkpt>
      <trkpt lat="49.14895" lon="1.9831">
        <ele>131.2</ele>
        <time>2023-09-16T19:33:15Z</time>
      </trkpt>
      <trkpt lat="49.14913" lon="1.98358">
        <ele>132.5</ele>
        <time>2023-09-16T19:34:04Z</time>
      </trkpt>
      <trkpt lat="49.14926" lon="1.98378">
        <ele>132.9</ele>
        <time>2023-09-16T19:34:28Z</time>
      </trkpt>
      <trkpt lat="49.15053" lon="1.98451">
        <ele>138.6</ele>
        <time>2023-09-16T19:37:29Z</time>
      </trkpt>
      <trkpt lat="49.15159" lon="1.98503">
        <ele>143.6</ele>
        <time>2023-09-16T19:39:58Z</time>
      </trkpt>
      <trkpt lat="49.15157" lon="1.98508">
        <ele>143.6</ele>
        <time>2023-09-16T19:40:03Z</time>
      </trkpt>
      <trkpt lat="49.15159" lon="1.98503">
        <ele>143.6</ele>
        <time>2023-09-16T19:40:08Z</time>
      </trkpt>
      <trkpt lat="49.15181" lon="1.98495">
        <ele>144.8</ele>
        <time>2023-09-16T19:40:38Z</time>
      </trkpt>
      <trkpt lat="49.15193" lon="1.985">
        <ele>145.9</ele>
        <time>2023-09-16T19:40:55Z</time>
      </trkpt>
      <trkpt lat="49.1527" lon="1.98562">
        <ele>152.4</ele>
        <time>2023-09-16T19:42:51Z</time>
      </trkpt>
      <trkpt lat="49.15286" lon="1.98579">
        <ele>153.8</ele>
        <time>2023-09-16T19:43:17Z</time>
      </trkpt>
      <trkpt lat="49.15319" lon="1.98599">
        <ele>156.8</ele>
        <time>2023-09-16T19:44:04Z</time>
      </trkpt>
      <trkpt lat="49.15334" lon="1.98605">
        <ele>157.8</ele>
        <time>2023-09-16T19:44:25Z</time>
      </trkpt>
      <trkpt lat="49.15355" lon="1.9861">
        <ele>158.7</ele>
        <time>2023-09-16T19:44:53Z</time>
      </trkpt>
      <trkpt lat="49.15378" lon="1.98633">
        <ele>160.4</ele>
        <time>2023-09-16T19:45:30Z</time>
      </trkpt>
      <trkpt lat="49.15447" lon="1.98732">
        <ele>165.4</ele>
        <time>2023-09-16T19:47:36Z</time>
      </trkpt>
      <trkpt lat="49.15448" lon="1.98732">
        <ele>165.4</ele>
        <time>2023-09-16T19:47:38Z</time>
      </trkpt>
      <trkpt lat="49.15423" lon="1.98779">
        <ele>164.7</ele>
        <time>2023-09-16T19:48:30Z</time>
      </trkpt>
      <trkpt lat="49.15496" lon="1.98902">
        <ele>171.4</ele>
        <time>2023-09-16T19:50:55Z</time>
      </trkpt>
      <trkpt lat="49.15516" lon="1.98945">
        <ele>174.6</ele>
        <time>2023-09-16T19:51:41Z</time>
      </trkpt>
      <trkpt lat="49.15553" lon="1.99031">
        <ele>183.1</ele>
        <time>2023-09-16T19:53:11Z</time>
      </trkpt>
      <trkpt lat="49.15577" lon="1.9912">
        <ele>189.9</ele>
        <time>2023-09-16T19:54:35Z</time>
      </trkpt>
      <trkpt lat="49.15611" lon="1.9917">
        <ele>196.4</ele>
        <time>2023-09-16T19:55:38Z</time>
      </trkpt>
      <trkpt lat="49.15622" lon="1.99171">
        <ele>196.8</ele>
        <time>2023-09-16T19:55:53Z</time>
      </trkpt>
      <trkpt lat="49.15676" lon="1.99175">
        <ele>196.6</ele>
        <time>2023-09-16T19:57:05Z</time>
      </trkpt>
      <trkpt lat="49.15731" lon="1.99157">
        <ele>197</ele>
        <time>2023-09-16T19:58:20Z</time>
      </trkpt>
      <trkpt lat="49.1585" lon="1.99034">
        <ele>200.3</ele>
        <time>2023-09-16T20:01:32Z</time>
      </trkpt>
      <trkpt lat="49.15882" lon="1.99027">
        <ele>201.7</ele>
        <time>2023-09-16T20:02:15Z</time>
      </trkpt>
      <trkpt lat="49.15923" lon="1.98993">
        <ele>202</ele>
        <time>2023-09-16T20:03:17Z</time>
      </trkpt>
      <trkpt lat="49.15897" lon="1.99045">
        <ele>202</ele>
        <time>2023-09-16T20:04:14Z</time>
      </trkpt>
      <trkpt lat="49.15923" lon="1.98993">
        <ele>202</ele>
        <time>2023-09-16T20:05:12Z</time>
      </trkpt>
      <trkpt lat="49.16045" lon="1.9867">
        <ele>201</ele>
        <time>2023-09-16T20:10:37Z</time>
      </trkpt>
      <trkpt lat="49.1607" lon="1.98618">
        <ele>200.2</ele>
        <time>2023-09-16T20:11:33Z</time>
      </trkpt>
      <trkpt lat="49.16143" lon="1.98395">
        <ele>194.9</ele>
        <time>2023-09-16T20:15:11Z</time>
      </trkpt>
      <trkpt lat="49.16174" lon="1.98347">
        <ele>191.5</ele>
        <time>2023-09-16T20:16:10Z</time>
      </trkpt>
      <trkpt lat="49.16204" lon="1.98285">
        <ele>191.8</ele>
        <time>2023-09-16T20:17:17Z</time>
      </trkpt>
      <trkpt lat="49.16239" lon="1.98243">
        <ele>192</ele>
        <time>2023-09-16T20:18:17Z</time>
      </trkpt>
      <trkpt lat="49.16293" lon="1.9814">
        <ele>189.5</ele>
        <time>2023-09-16T20:20:12Z</time>
      </trkpt>
      <trkpt lat="49.16354" lon="1.98056">
        <ele>180.5</ele>
        <time>2023-09-16T20:22:01Z</time>
      </trkpt>
      <trkpt lat="49.16393" lon="1.97962">
        <ele>176.9</ele>
        <time>2023-09-16T20:23:38Z</time>
      </trkpt>
      <trkpt lat="49.16423" lon="1.97908">
        <ele>175.8</ele>
        <time>2023-09-16T20:24:40Z</time>
      </trkpt>
      <trkpt lat="49.16431" lon="1.97915">
        <ele>175.5</ele>
        <time>2023-09-16T20:24:53Z</time>
      </trkpt>
      <trkpt lat="49.16468" lon="1.97962">
        <ele>171.8</ele>
        <time>2023-09-16T20:25:57Z</time>
      </trkpt>
      <trkpt lat="49.16507" lon="1.98003">
        <ele>167.5</ele>
        <time>2023-09-16T20:27:00Z</time>
      </trkpt>
      <trkpt lat="49.1661" lon="1.98077">
        <ele>162.3</ele>
        <time>2023-09-16T20:29:32Z</time>
      </trkpt>
      <trkpt lat="49.16654" lon="1.98113">
        <ele>162</ele>
        <time>2023-09-16T20:30:38Z</time>
      </trkpt>
      <trkpt lat="49.16658" lon="1.98121">
        <ele>161.8</ele>
        <time>2023-09-16T20:30:47Z</time>
      </trkpt>
      <trkpt lat="49.16654" lon="1.98113">
        <ele>162</ele>
        <time>2023-09-16T20:30:56Z</time>
      </trkpt>
      <trkpt lat="49.16665" lon="1.98067">
        <ele>160</ele>
        <time>2023-09-16T20:31:39Z</time>
      </trkpt>
      <trkpt lat="49.16675" lon="1.98041">
        <ele>159.4</ele>
        <time>2023-09-16T20:32:05Z</time>
      </trkpt>
      <trkpt lat="49.16723" lon="1.9793">
        <ele>153.5</ele>
        <time>2023-09-16T20:34:01Z</time>
      </trkpt>
      <trkpt lat="49.16761" lon="1.97854">
        <ele>150.2</ele>
        <time>2023-09-16T20:35:25Z</time>
      </trkpt>
      <trkpt lat="49.16763" lon="1.97828">
        <ele>150.2</ele>
        <time>2023-09-16T20:35:47Z</time>
      </trkpt>
      <trkpt lat="49.16762" lon="1.97811">
        <ele>150.5</ele>
        <time>2023-09-16T20:36:02Z</time>
      </trkpt>
      <trkpt lat="49.16763" lon="1.97828">
        <ele>150.2</ele>
        <time>2023-09-16T20:36:17Z</time>
      </trkpt>
      <trkpt lat="49.16787" lon="1.97786">
        <ele>149.9</ele>
        <time>2023-09-16T20:37:06Z</time>
      </trkpt>
      <trkpt lat="49.16801" lon="1.97786">
        <ele>149.8</ele>
        <time>2023-09-16T20:37:25Z</time>
      </trkpt>
      <trkpt lat="49.16829" lon="1.97816">
        <ele>147.8</ele>
        <time>2023-09-16T20:38:10Z</time>
      </trkpt>
      <trkpt lat="49.16853" lon="1.9781">
        <ele>147.7</ele>
        <time>2023-09-16T20:38:43Z</time>
      </trkpt>
      <trkpt lat="49.1688" lon="1.97825">
        <ele>145.9</ele>
        <time>2023-09-16T20:39:21Z</time>
      </trkpt>
      <trkpt lat="49.16915" lon="1.97865">
        <ele>141</ele>
        <time>2023-09-16T20:40:19Z</time>
      </trkpt>
      <trkpt lat="49.16936" lon="1.97883">
        <ele>139.5</ele>
        <time>2023-09-16T20:40:51Z</time>
      </trkpt>
      <trkpt lat="49.17034" lon="1.97919">
        <ele>134.2</ele>
        <time>2023-09-16T20:43:06Z</time>
      </trkpt>
      <trkpt lat="49.17126" lon="1.97945">
        <ele>132.4</ele>
        <time>2023-09-16T20:45:11Z</time>
      </trkpt>
      <trkpt lat="49.1714" lon="1.97979">
        <ele>130.8</ele>
        <time>2023-09-16T20:45:46Z</time>
      </trkpt>
      <trkpt lat="49.17274" lon="1.98031">
        <ele>127.9</ele>
        <time>2023-09-16T20:48:50Z</time>
      </trkpt>
      <trkpt lat="49.17362" lon="1.98071">
        <ele>126</ele>
        <time>2023-09-16T20:50:53Z</time>
      </trkpt>
      <trkpt lat="49.17526" lon="1.98139">
        <ele>123</ele>
        <time>2023-09-16T20:54:40Z</time>
      </trkpt>
      <trkpt lat="49.17546" lon="1.98153">
        <ele>123</ele>
        <time>2023-09-16T20:55:09Z</time>
      </trkpt>
      <trkpt lat="49.17546" lon="1.98151">
        <ele>123</ele>
        <time>2023-09-16T20:55:11Z</time>
      </trkpt>
      <trkpt lat="49.17546" lon="1.98153">
        <ele>123</ele>
        <time>2023-09-16T20:55:12Z</time>
      </trkpt>
      <trkpt lat="49.1756" lon="1.98173">
        <ele>122.9</ele>
        <time>2023-09-16T20:55:38Z</time>
      </trkpt>
      <trkpt lat="49.17636" lon="1.98302">
        <ele>128.8</ele>
        <time>2023-09-16T20:58:09Z</time>
      </trkpt>
      <trkpt lat="49.17639" lon="1.98323">
        <ele>129</ele>
        <time>2023-09-16T20:58:28Z</time>
      </trkpt>
      <trkpt lat="49.17653" lon="1.98325">
        <ele>129</ele>
        <time>2023-09-16T20:58:47Z</time>
      </trkpt>
      <trkpt lat="49.17831" lon="1.98545">
        <ele>117.6</ele>
        <time>2023-09-16T21:03:52Z</time>
      </trkpt>
      <trkpt lat="49.17929" lon="1.98688">
        <ele>113.8</ele>
        <time>2023-09-16T21:06:53Z</time>
      </trkpt>
      <trkpt lat="49.17931" lon="1.9869">
        <ele>113.9</ele>
        <time>2023-09-16T21:06:56Z</time>
      </trkpt>
      <trkpt lat="49.1798" lon="1.9876">
        <ele>118.8</ele>
        <time>2023-09-16T21:08:26Z</time>
      </trkpt>
      <trkpt lat="49.18101" lon="1.98892">
        <ele>123.8</ele>
        <time>2023-09-16T21:11:44Z</time>
      </trkpt>
      <trkpt lat="49.18142" lon="1.98949">
        <ele>120.6</ele>
        <time>2023-09-16T21:12:58Z</time>
      </trkpt>
      <trkpt lat="49.18159" lon="1.98981">
        <ele>118.8</ele>
        <time>2023-09-16T21:13:34Z</time>
      </trkpt>
      <trkpt lat="49.18346" lon="1.99389">
        <ele>120.5</ele>
        <time>2023-09-16T21:20:49Z</time>
      </trkpt>
      <trkpt lat="49.18347" lon="1.99388">
        <ele>120.5</ele>
        <time>2023-09-16T21:20:50Z</time>
      </trkpt>
      <trkpt lat="49.18473" lon="1.9925">
        <ele>124.1</ele>
        <time>2023-09-16T21:24:17Z</time>
      </trkpt>
      <trkpt lat="49.18493" lon="1.99253">
        <ele>125.9</ele>
        <time>2023-09-16T21:24:44Z</time>
      </trkpt>
      <trkpt lat="49.18532" lon="1.9928">
        <ele>130.9</ele>
        <time>2023-09-16T21:25:41Z</time>
      </trkpt>
      <trkpt lat="49.18559" lon="1.99295">
        <ele>134</ele>
        <time>2023-09-16T21:26:19Z</time>
      </trkpt>
      <trkpt lat="49.18612" lon="1.99296">
        <ele>138</ele>
        <time>2023-09-16T21:27:30Z</time>
      </trkpt>
      <trkpt lat="49.1869" lon="1.99335">
        <ele>140</ele>
        <time>2023-09-16T21:29:19Z</time>
      </trkpt>
      <trkpt lat="49.18732" lon="1.99372">
        <ele>138.7</ele>
        <time>2023-09-16T21:30:24Z</time>
      </trkpt>
      <trkpt lat="49.18745" lon="1.99379">
        <ele>138.1</ele>
        <time>2023-09-16T21:30:43Z</time>
      </trkpt>
      <trkpt lat="49.18782" lon="1.99383">
        <ele>139.9</ele>
        <time>2023-09-16T21:31:32Z</time>
      </trkpt>
      <trkpt lat="49.18807" lon="1.99376">
        <ele>141.9</ele>
        <time>2023-09-16T21:32:06Z</time>
      </trkpt>
      <trkpt lat="49.1883" lon="1.99356">
        <ele>141.3</ele>
        <time>2023-09-16T21:32:41Z</time>
      </trkpt>
      <trkpt lat="49.1885" lon="1.99314">
        <ele>140.4</ele>
        <time>2023-09-16T21:33:27Z</time>
      </trkpt>
      <trkpt lat="49.18881" lon="1.99263">
        <ele>139.1</ele>
        <time>2023-09-16T21:34:27Z</time>
      </trkpt>
      <trkpt lat="49.18899" lon="1.99203">
        <ele>137.9</ele>
        <time>2023-09-16T21:35:25Z</time>
      </trkpt>
      <trkpt lat="49.18911" lon="1.99149">
        <ele>137.5</ele>
        <time>2023-09-16T21:36:15Z</time>
      </trkpt>
      <trkpt lat="49.1896" lon="1.99086">
        <ele>138.3</ele>
        <time>2023-09-16T21:37:40Z</time>
      </trkpt>
      <trkpt lat="49.19004" lon="1.9904">
        <ele>138</ele>
        <time>2023-09-16T21:38:51Z</time>
      </trkpt>
      <trkpt lat="49.19057" lon="1.99008">
        <ele>137.6</ele>
        <time>2023-09-16T21:40:07Z</time>
      </trkpt>
      <trkpt lat="49.19079" lon="1.99007">
        <ele>138.1</ele>
        <time>2023-09-16T21:40:37Z</time>
      </trkpt>
      <trkpt lat="49.19105" lon="1.99019">
        <ele>137.1</ele>
        <time>2023-09-16T21:41:13Z</time>
      </trkpt>
      <trkpt lat="49.19134" lon="1.99058">
        <ele>135.6</ele>
        <time>2023-09-16T21:42:04Z</time>
      </trkpt>
      <trkpt lat="49.1923" lon="1.99116">
        <ele>137.4</ele>
        <time>2023-09-16T21:44:22Z</time>
      </trkpt>
      <trkpt lat="49.19274" lon="1.99117">
        <ele>142.4</ele>
        <time>2023-09-16T21:45:21Z</time>
      </trkpt>
      <trkpt lat="49.19337" lon="1.99115">
        <ele>146</ele>
        <time>2023-09-16T21:46:45Z</time>
      </trkpt>
      <trkpt lat="49.19369" lon="1.99227">
        <ele>147.3</ele>
        <time>2023-09-16T21:48:31Z</time>
      </trkpt>
      <trkpt lat="49.19388" lon="1.99346">
        <ele>151.6</ele>
        <time>2023-09-16T21:50:18Z</time>
      </trkpt>
      <trkpt lat="49.19394" lon="1.99454">
        <ele>154.3</ele>
        <time>2023-09-16T21:51:53Z</time>
      </trkpt>
      <trkpt lat="49.1937" lon="1.99569">
        <ele>159.3</ele>
        <time>2023-09-16T21:53:38Z</time>
      </trkpt>
      <trkpt lat="49.19357" lon="1.99639">
        <ele>163</ele>
        <time>2023-09-16T21:54:42Z</time>
      </trkpt>
      <trkpt lat="49.19361" lon="1.99765">
        <ele>170.1</ele>
        <time>2023-09-16T21:56:32Z</time>
      </trkpt>
      <trkpt lat="49.19371" lon="1.99852">
        <ele>176.8</ele>
        <time>2023-09-16T21:57:49Z</time>
      </trkpt>
      <trkpt lat="49.19339" lon="1.99922">
        <ele>181.5</ele>
        <time>2023-09-16T21:59:03Z</time>
      </trkpt>
      <trkpt lat="49.1931" lon="2.00037">
        <ele>190.4</ele>
        <time>2023-09-16T22:00:51Z</time>
      </trkpt>
      <trkpt lat="49.19311" lon="2.0009">
        <ele>196.3</ele>
        <time>2023-09-16T22:01:37Z</time>
      </trkpt>
      <trkpt lat="49.19312" lon="2.00104">
        <ele>197.4</ele>
        <time>2023-09-16T22:01:49Z</time>
      </trkpt>
      <trkpt lat="49.19342" lon="2.0016">
        <ele>200.5</ele>
        <time>2023-09-16T22:02:52Z</time>
      </trkpt>
      <trkpt lat="49.19383" lon="2.00208">
        <ele>202.3</ele>
        <time>2023-09-16T22:04:01Z</time>
      </trkpt>
      <trkpt lat="49.19465" lon="2.00324">
        <ele>206.2</ele>
        <time>2023-09-16T22:06:30Z</time>
      </trkpt>
      <trkpt lat="49.19501" lon="2.00422">
        <ele>207.1</ele>
        <time>2023-09-16T22:08:08Z</time>
      </trkpt>
      <trkpt lat="49.19518" lon="2.00498">
        <ele>206.1</ele>
        <time>2023-09-16T22:09:18Z</time>
      </trkpt>
      <trkpt lat="49.1949" lon="2.00539">
        <ele>202.8</ele>
        <time>2023-09-16T22:10:10Z</time>
      </trkpt>
      <trkpt lat="49.19442" lon="2.00654">
        <ele>199.7</ele>
        <time>2023-09-16T22:12:09Z</time>
      </trkpt>
      <trkpt lat="49.19429" lon="2.007">
        <ele>197.4</ele>
        <time>2023-09-16T22:12:53Z</time>
      </trkpt>
      <trkpt lat="49.1941" lon="2.00777">
        <ele>200.5</ele>
        <time>2023-09-16T22:14:04Z</time>
      </trkpt>
      <trkpt lat="49.19409" lon="2.00778">
        <ele>200.6</ele>
        <time>2023-09-16T22:14:06Z</time>
      </trkpt>
      <trkpt lat="49.19432" lon="2.00846">
        <ele>202.1</ele>
        <time>2023-09-16T22:15:13Z</time>
      </trkpt>
      <trkpt lat="49.19463" lon="2.00918">
        <ele>206</ele>
        <time>2023-09-16T22:16:28Z</time>
      </trkpt>
      <trkpt lat="49.19494" lon="2.00996">
        <ele>201.2</ele>
        <time>2023-09-16T22:17:48Z</time>
      </trkpt>
      <trkpt lat="49.19504" lon="2.01065">
        <ele>198.3</ele>
        <time>2023-09-16T22:18:49Z</time>
      </trkpt>
      <trkpt lat="49.1954" lon="2.01097">
        <ele>190.7</ele>
        <time>2023-09-16T22:19:45Z</time>
      </trkpt>
      <trkpt lat="49.19589" lon="2.01164">
        <ele>183.3</ele>
        <time>2023-09-16T22:21:13Z</time>
      </trkpt>
      <trkpt lat="49.19604" lon="2.01174">
        <ele>181.1</ele>
        <time>2023-09-16T22:21:34Z</time>
      </trkpt>
      <trkpt lat="49.19678" lon="2.01177">
        <ele>172.4</ele>
        <time>2023-09-16T22:23:13Z</time>
      </trkpt>
      <trkpt lat="49.19711" lon="2.01201">
        <ele>168</ele>
        <time>2023-09-16T22:24:02Z</time>
      </trkpt>
      <trkpt lat="49.1973" lon="2.01205">
        <ele>165.8</ele>
        <time>2023-09-16T22:24:27Z</time>
      </trkpt>
      <trkpt lat="49.19755" lon="2.01214">
        <ele>162.9</ele>
        <time>2023-09-16T22:25:02Z</time>
      </trkpt>
      <trkpt lat="49.1985" lon="2.01224">
        <ele>155.1</ele>
        <time>2023-09-16T22:27:09Z</time>
      </trkpt>
      <trkpt lat="49.19885" lon="2.0122">
        <ele>151.4</ele>
        <time>2023-09-16T22:27:56Z</time>
      </trkpt>
      <trkpt lat="49.19955" lon="2.01256">
        <ele>139.4</ele>
        <time>2023-09-16T22:29:34Z</time>
      </trkpt>
      <trkpt lat="49.1998" lon="2.01242">
        <ele>135.8</ele>
        <time>2023-09-16T22:30:10Z</time>
      </trkpt>
      <trkpt lat="49.19989" lon="2.01242">
        <ele>135.6</ele>
        <time>2023-09-16T22:30:22Z</time>
      </trkpt>
      <trkpt lat="49.19989" lon="2.01244">
        <ele>135.5</ele>
        <time>2023-09-16T22:30:24Z</time>
      </trkpt>
      <trkpt lat="49.19992" lon="2.01267">
        <ele>135</ele>
        <time>2023-09-16T22:30:44Z</time>
      </trkpt>
      <trkpt lat="49.19998" lon="2.01293">
        <ele>134.3</ele>
        <time>2023-09-16T22:31:08Z</time>
      </trkpt>
      <trkpt lat="49.2003" lon="2.01359">
        <ele>131.8</ele>
        <time>2023-09-16T22:32:20Z</time>
      </trkpt>
      <trkpt lat="49.20038" lon="2.01388">
        <ele>131.3</ele>
        <time>2023-09-16T22:32:47Z</time>
      </trkpt>
      <trkpt lat="49.2005" lon="2.01473">
        <ele>130.2</ele>
        <time>2023-09-16T22:34:03Z</time>
      </trkpt>
      <trkpt lat="49.20131" lon="2.01516">
        <ele>128.6</ele>
        <time>2023-09-16T22:35:57Z</time>
      </trkpt>
      <trkpt lat="49.20144" lon="2.01518">
        <ele>128.2</ele>
        <time>2023-09-16T22:36:15Z</time>
      </trkpt>
      <trkpt lat="49.20168" lon="2.01513">
        <ele>127.3</ele>
        <time>2023-09-16T22:36:47Z</time>
      </trkpt>
      <trkpt lat="49.20177" lon="2.01501">
        <ele>125.4</ele>
        <time>2023-09-16T22:37:03Z</time>
      </trkpt>
      <trkpt lat="49.20178" lon="2.01515">
        <ele>126.6</ele>
        <time>2023-09-16T22:37:15Z</time>
      </trkpt>
      <trkpt lat="49.20198" lon="2.01573">
        <ele>128</ele>
        <time>2023-09-16T22:38:12Z</time>
      </trkpt>
      <trkpt lat="49.20206" lon="2.01612">
        <ele>128.8</ele>
        <time>2023-09-16T22:38:48Z</time>
      </trkpt>
      <trkpt lat="49.20209" lon="2.01649">
        <ele>128.8</ele>
        <time>2023-09-16T22:39:21Z</time>
      </trkpt>
      <trkpt lat="49.20209" lon="2.01673">
        <ele>129.5</ele>
        <time>2023-09-16T22:39:42Z</time>
      </trkpt>
      <trkpt lat="49.20202" lon="2.01774">
        <ele>131.7</ele>
        <time>2023-09-16T22:41:10Z</time>
      </trkpt>
      <trkpt lat="49.20202" lon="2.01797">
        <ele>131.7</ele>
        <time>2023-09-16T22:41:30Z</time>
      </trkpt>
      <trkpt lat="49.20197" lon="2.0211">
        <ele>136.9</ele>
        <time>2023-09-16T22:46:03Z</time>
      </trkpt>
      <trkpt lat="49.20199" lon="2.02151">
        <ele>136.8</ele>
        <time>2023-09-16T22:46:39Z</time>
      </trkpt>
      <trkpt lat="49.20218" lon="2.02329">
        <ele>133.4</ele>
        <time>2023-09-16T22:49:16Z</time>
      </trkpt>
      <trkpt lat="49.20236" lon="2.02382">
        <ele>130.9</ele>
        <time>2023-09-16T22:50:08Z</time>
      </trkpt>
      <trkpt lat="49.20335" lon="2.02584">
        <ele>120</ele>
        <time>2023-09-16T22:53:49Z</time>
      </trkpt>
      <trkpt lat="49.20357" lon="2.02603">
        <ele>119.9</ele>
        <time>2023-09-16T22:54:22Z</time>
      </trkpt>
      <trkpt lat="49.20382" lon="2.02602">
        <ele>118.9</ele>
        <time>2023-09-16T22:54:56Z</time>
      </trkpt>
      <trkpt lat="49.20414" lon="2.0259">
        <ele>117.3</ele>
        <time>2023-09-16T22:55:40Z</time>
      </trkpt>
      <trkpt lat="49.20414" lon="2.02589">
        <ele>117.3</ele>
        <time>2023-09-16T22:55:40Z</time>
      </trkpt>
      <trkpt lat="49.20413" lon="2.02613">
        <ele>118.3</ele>
        <time>2023-09-16T22:56:01Z</time>
      </trkpt>
      <trkpt lat="49.20407" lon="2.02653">
        <ele>120.8</ele>
        <time>2023-09-16T22:56:37Z</time>
      </trkpt>
      <trkpt lat="49.20391" lon="2.02725">
        <ele>124.5</ele>
        <time>2023-09-16T22:57:44Z</time>
      </trkpt>
      <trkpt lat="49.20374" lon="2.0279">
        <ele>127.6</ele>
        <time>2023-09-16T22:58:45Z</time>
      </trkpt>
      <trkpt lat="49.20379" lon="2.02811">
        <ele>129</ele>
        <time>2023-09-16T22:59:04Z</time>
      </trkpt>
      <trkpt lat="49.20424" lon="2.02909">
        <ele>136</ele>
        <time>2023-09-16T23:00:48Z</time>
      </trkpt>
      <trkpt lat="49.20439" lon="2.02935">
        <ele>137.5</ele>
        <time>2023-09-16T23:01:19Z</time>
      </trkpt>
      <trkpt lat="49.2044" lon="2.03082">
        <ele>140.8</ele>
        <time>2023-09-16T23:03:27Z</time>
      </trkpt>
      <trkpt lat="49.20428" lon="2.03153">
        <ele>141.7</ele>
        <time>2023-09-16T23:04:31Z</time>
      </trkpt>
      <trkpt lat="49.20424" lon="2.03188">
        <ele>142</ele>
        <time>2023-09-16T23:05:02Z</time>
      </trkpt>
      <trkpt lat="49.20425" lon="2.03294">
        <ele>143.6</ele>
        <time>2023-09-16T23:06:34Z</time>
      </trkpt>
      <trkpt lat="49.20462" lon="2.03519">
        <ele>146.4</ele>
        <time>2023-09-16T23:09:57Z</time>
      </trkpt>
      <trkpt lat="49.20548" lon="2.03681">
        <ele>148</ele>
        <time>2023-09-16T23:12:59Z</time>
      </trkpt>
      <trkpt lat="49.20569" lon="2.03721">
        <ele>148</ele>
        <time>2023-09-16T23:13:43Z</time>
      </trkpt>
      <trkpt lat="49.20624" lon="2.03777">
        <ele>146.1</ele>
        <time>2023-09-16T23:15:11Z</time>
      </trkpt>
      <trkpt lat="49.20735" lon="2.03869">
        <ele>133.8</ele>
        <time>2023-09-16T23:18:00Z</time>
      </trkpt>
      <trkpt lat="49.20739" lon="2.0389">
        <ele>132.8</ele>
        <time>2023-09-16T23:18:19Z</time>
      </trkpt>
      <trkpt lat="49.20774" lon="2.04">
        <ele>124.8</ele>
        <time>2023-09-16T23:20:06Z</time>
      </trkpt>
      <trkpt lat="49.20791" lon="2.04104">
        <ele>119.1</ele>
        <time>2023-09-16T23:21:39Z</time>
      </trkpt>
      <trkpt lat="49.20791" lon="2.04104">
        <ele>119.1</ele>
        <time>2023-09-16T23:21:39Z</time>
      </trkpt>
      <trkpt lat="49.20817" lon="2.04216">
        <ele>113.2</ele>
        <time>2023-09-16T23:23:23Z</time>
      </trkpt>
      <trkpt lat="49.20829" lon="2.04241">
        <ele>110.7</ele>
        <time>2023-09-16T23:23:50Z</time>
      </trkpt>
      <trkpt lat="49.20849" lon="2.0426">
        <ele>108.3</ele>
        <time>2023-09-16T23:24:21Z</time>
      </trkpt>
      <trkpt lat="49.20845" lon="2.04291">
        <ele>108.7</ele>
        <time>2023-09-16T23:24:49Z</time>
      </trkpt>
      <trkpt lat="49.20835" lon="2.04334">
        <ele>106.9</ele>
        <time>2023-09-16T23:25:29Z</time>
      </trkpt>
      <trkpt lat="49.20798" lon="2.04489">
        <ele>101.3</ele>
        <time>2023-09-16T23:27:52Z</time>
      </trkpt>
      <trkpt lat="49.20787" lon="2.04559">
        <ele>98.5</ele>
        <time>2023-09-16T23:28:55Z</time>
      </trkpt>
      <trkpt lat="49.20784" lon="2.0468">
        <ele>95.2</ele>
        <time>2023-09-16T23:30:41Z</time>
      </trkpt>
      <trkpt lat="49.20784" lon="2.04747">
        <ele>93.9</ele>
        <time>2023-09-16T23:31:39Z</time>
      </trkpt>
      <trkpt lat="49.20779" lon="2.04814">
        <ele>93.9</ele>
        <time>2023-09-16T23:32:38Z</time>
      </trkpt>
      <trkpt lat="49.20779" lon="2.04849">
        <ele>93.4</ele>
        <time>2023-09-16T23:33:08Z</time>
      </trkpt>
      <trkpt lat="49.20783" lon="2.04883">
        <ele>92.8</ele>
        <time>2023-09-16T23:33:39Z</time>
      </trkpt>
      <trkpt lat="49.20805" lon="2.05011">
        <ele>93.4</ele>
        <time>2023-09-16T23:35:34Z</time>
      </trkpt>
      <trkpt lat="49.20801" lon="2.05063">
        <ele>94.3</ele>
        <time>2023-09-16T23:36:20Z</time>
      </trkpt>
      <trkpt lat="49.20795" lon="2.05093">
        <ele>94.4</ele>
        <time>2023-09-16T23:36:47Z</time>
      </trkpt>
      <trkpt lat="49.20788" lon="2.05121">
        <ele>94.9</ele>
        <time>2023-09-16T23:37:13Z</time>
      </trkpt>
      <trkpt lat="49.20784" lon="2.05134">
        <ele>95.4</ele>
        <time>2023-09-16T23:37:26Z</time>
      </trkpt>
      <trkpt lat="49.20772" lon="2.05153">
        <ele>95.9</ele>
        <time>2023-09-16T23:37:49Z</time>
      </trkpt>
      <trkpt lat="49.20755" lon="2.05204">
        <ele>94.7</ele>
        <time>2023-09-16T23:38:39Z</time>
      </trkpt>
      <trkpt lat="49.20714" lon="2.05278">
        <ele>92.3</ele>
        <time>2023-09-16T23:40:03Z</time>
      </trkpt>
      <trkpt lat="49.20713" lon="2.05278">
        <ele>92.3</ele>
        <time>2023-09-16T23:40:04Z</time>
      </trkpt>
      <trkpt lat="49.20677" lon="2.05216">
        <ele>94.3</ele>
        <time>2023-09-16T23:41:17Z</time>
      </trkpt>
      <trkpt lat="49.20647" lon="2.05189">
        <ele>96.2</ele>
        <time>2023-09-16T23:42:03Z</time>
      </trkpt>
      <trkpt lat="49.20622" lon="2.05174">
        <ele>97.3</ele>
        <time>2023-09-16T23:42:39Z</time>
      </trkpt>
      <trkpt lat="49.20574" lon="2.05141">
        <ele>101</ele>
        <time>2023-09-16T23:43:49Z</time>
      </trkpt>
      <trkpt lat="49.20572" lon="2.0509">
        <ele>103.9</ele>
        <time>2023-09-16T23:44:34Z</time>
      </trkpt>
      <trkpt lat="49.20554" lon="2.05047">
        <ele>108</ele>
        <time>2023-09-16T23:45:18Z</time>
      </trkpt>
      <trkpt lat="49.20547" lon="2.05011">
        <ele>113.3</ele>
        <time>2023-09-16T23:45:51Z</time>
      </trkpt>
      <trkpt lat="49.20542" lon="2.04947">
        <ele>122.6</ele>
        <time>2023-09-16T23:46:47Z</time>
      </trkpt>
      <trkpt lat="49.20551" lon="2.04831">
        <ele>130.1</ele>
        <time>2023-09-16T23:48:29Z</time>
      </trkpt>
      <trkpt lat="49.20551" lon="2.04748">
        <ele>136.6</ele>
        <time>2023-09-16T23:49:42Z</time>
      </trkpt>
      <trkpt lat="49.2055" lon="2.0472">
        <ele>137.7</ele>
        <time>2023-09-16T23:50:06Z</time>
      </trkpt>
      <trkpt lat="49.2054" lon="2.04689">
        <ele>139.3</ele>
        <time>2023-09-16T23:50:36Z</time>
      </trkpt>
      <trkpt lat="49.20482" lon="2.04552">
        <ele>144.1</ele>
        <time>2023-09-16T23:52:58Z</time>
      </trkpt>
      <trkpt lat="49.2048" lon="2.04529">
        <ele>145</ele>
        <time>2023-09-16T23:53:19Z</time>
      </trkpt>
      <trkpt lat="49.20452" lon="2.04413">
        <ele>147.1</ele>
        <time>2023-09-16T23:55:07Z</time>
      </trkpt>
      <trkpt lat="49.20436" lon="2.04373">
        <ele>148</ele>
        <time>2023-09-16T23:55:47Z</time>
      </trkpt>
      <trkpt lat="49.20379" lon="2.04292">
        <ele>148</ele>
        <time>2023-09-16T23:57:31Z</time>
      </trkpt>
      <trkpt lat="49.20374" lon="2.04283">
        <ele>148</ele>
        <time>2023-09-16T23:57:41Z</time>
      </trkpt>
      <trkpt lat="49.20383" lon="2.04286">
        <ele>148</ele>
        <time>2023-09-16T23:57:54Z</time>
      </trkpt>
      <trkpt lat="49.20374" lon="2.04283">
        <ele>148</ele>
        <time>2023-09-16T23:58:06Z</time>
      </trkpt>
      <trkpt lat="49.20332" lon="2.04268">
        <ele>147</ele>
        <time>2023-09-16T23:59:04Z</time>
      </trkpt>
      <trkpt lat="49.20294" lon="2.0426">
        <ele>146.6</ele>
        <time>2023-09-16T23:59:55Z</time>
      </trkpt>
      <trkpt lat="49.20207" lon="2.04267">
        <ele>142.5</ele>
        <time>2023-09-17T00:01:51Z</time>
      </trkpt>
      <trkpt lat="49.20142" lon="2.043">
        <ele>139.1</ele>
        <time>2023-09-17T00:03:22Z</time>
      </trkpt>
      <trkpt lat="49.20131" lon="2.04487">
        <ele>138.7</ele>
        <time>2023-09-17T00:06:06Z</time>
      </trkpt>
      <trkpt lat="49.20135" lon="2.04716">
        <ele>136.2</ele>
        <time>2023-09-17T00:09:26Z</time>
      </trkpt>
      <trkpt lat="49.20126" lon="2.04781">
        <ele>134.9</ele>
        <time>2023-09-17T00:10:24Z</time>
      </trkpt>
      <trkpt lat="49.20125" lon="2.04792">
        <ele>134.7</ele>
        <time>2023-09-17T00:10:34Z</time>
      </trkpt>
      <trkpt lat="49.20078" lon="2.04732">
        <ele>134.8</ele>
        <time>2023-09-17T00:11:55Z</time>
      </trkpt>
      <trkpt lat="49.19981" lon="2.04589">
        <ele>131.6</ele>
        <time>2023-09-17T00:14:55Z</time>
      </trkpt>
      <trkpt lat="49.19925" lon="2.04525">
        <ele>130.9</ele>
        <time>2023-09-17T00:16:28Z</time>
      </trkpt>
      <trkpt lat="49.19876" lon="2.0449">
        <ele>131.3</ele>
        <time>2023-09-17T00:17:40Z</time>
      </trkpt>
      <trkpt lat="49.1982" lon="2.04416">
        <ele>135</ele>
        <time>2023-09-17T00:19:19Z</time>
      </trkpt>
      <trkpt lat="49.19704" lon="2.04281">
        <ele>138.9</ele>
        <time>2023-09-17T00:22:34Z</time>
      </trkpt>
      <trkpt lat="49.19654" lon="2.04234">
        <ele>139.1</ele>
        <time>2023-09-17T00:23:52Z</time>
      </trkpt>
      <trkpt lat="49.19613" lon="2.0419">
        <ele>139.2</ele>
        <time>2023-09-17T00:24:59Z</time>
      </trkpt>
      <trkpt lat="49.19567" lon="2.04108">
        <ele>138.8</ele>
        <time>2023-09-17T00:26:33Z</time>
      </trkpt>
      <trkpt lat="49.19552" lon="2.04085">
        <ele>137.9</ele>
        <time>2023-09-17T00:27:01Z</time>
      </trkpt>
      <trkpt lat="49.1953" lon="2.04071">
        <ele>137.1</ele>
        <time>2023-09-17T00:27:33Z</time>
      </trkpt>
      <trkpt lat="49.19472" lon="2.04019">
        <ele>140.3</ele>
        <time>2023-09-17T00:29:03Z</time>
      </trkpt>
      <trkpt lat="49.19438" lon="2.03992">
        <ele>141.5</ele>
        <time>2023-09-17T00:29:54Z</time>
      </trkpt>
      <trkpt lat="49.19398" lon="2.03972">
        <ele>143</ele>
        <time>2023-09-17T00:30:50Z</time>
      </trkpt>
      <trkpt lat="49.19329" lon="2.03931">
        <ele>143.2</ele>
        <time>2023-09-17T00:32:29Z</time>
      </trkpt>
      <trkpt lat="49.19304" lon="2.03902">
        <ele>142.9</ele>
        <time>2023-09-17T00:33:11Z</time>
      </trkpt>
      <trkpt lat="49.19248" lon="2.03831">
        <ele>142</ele>
        <time>2023-09-17T00:34:48Z</time>
      </trkpt>
      <trkpt lat="49.1923" lon="2.03799">
        <ele>142.3</ele>
        <time>2023-09-17T00:35:25Z</time>
      </trkpt>
      <trkpt lat="49.19223" lon="2.03783">
        <ele>142.1</ele>
        <time>2023-09-17T00:35:41Z</time>
      </trkpt>
      <trkpt lat="49.19226" lon="2.03755">
        <ele>143.1</ele>
        <time>2023-09-17T00:36:06Z</time>
      </trkpt>
      <trkpt lat="49.19242" lon="2.03677">
        <ele>149.4</ele>
        <time>2023-09-17T00:37:17Z</time>
      </trkpt>
      <trkpt lat="49.19255" lon="2.03634">
        <ele>153.4</ele>
        <time>2023-09-17T00:37:59Z</time>
      </trkpt>
      <trkpt lat="49.19269" lon="2.03611">
        <ele>154.7</ele>
        <time>2023-09-17T00:38:26Z</time>
      </trkpt>
      <trkpt lat="49.19307" lon="2.03556">
        <ele>158</ele>
        <time>2023-09-17T00:39:36Z</time>
      </trkpt>
      <trkpt lat="49.19337" lon="2.03521">
        <ele>160</ele>
        <time>2023-09-17T00:40:26Z</time>
      </trkpt>
      <trkpt lat="49.19361" lon="2.03512">
        <ele>160.6</ele>
        <time>2023-09-17T00:40:59Z</time>
      </trkpt>
      <trkpt lat="49.19415" lon="2.03447">
        <ele>160.9</ele>
        <time>2023-09-17T00:42:31Z</time>
      </trkpt>
      <trkpt lat="49.19486" lon="2.03328">
        <ele>160.2</ele>
        <time>2023-09-17T00:44:51Z</time>
      </trkpt>
      <trkpt lat="49.19511" lon="2.03276">
        <ele>161</ele>
        <time>2023-09-17T00:45:48Z</time>
      </trkpt>
      <trkpt lat="49.19566" lon="2.03116">
        <ele>162.6</ele>
        <time>2023-09-17T00:48:25Z</time>
      </trkpt>
      <trkpt lat="49.1959" lon="2.03063">
        <ele>162.4</ele>
        <time>2023-09-17T00:49:22Z</time>
      </trkpt>
      <trkpt lat="49.19623" lon="2.03002">
        <ele>162.6</ele>
        <time>2023-09-17T00:50:31Z</time>
      </trkpt>
      <trkpt lat="49.19638" lon="2.02968">
        <ele>163</ele>
        <time>2023-09-17T00:51:06Z</time>
      </trkpt>
      <trkpt lat="49.19659" lon="2.02894">
        <ele>161.9</ele>
        <time>2023-09-17T00:52:17Z</time>
      </trkpt>
      <trkpt lat="49.19662" lon="2.02862">
        <ele>162</ele>
        <time>2023-09-17T00:52:45Z</time>
      </trkpt>
      <trkpt lat="49.19657" lon="2.02723">
        <ele>156.1</ele>
        <time>2023-09-17T00:54:46Z</time>
      </trkpt>
      <trkpt lat="49.19675" lon="2.02615">
        <ele>148.9</ele>
        <time>2023-09-17T00:56:24Z</time>
      </trkpt>
      <trkpt lat="49.1969" lon="2.02589">
        <ele>147.2</ele>
        <time>2023-09-17T00:56:54Z</time>
      </trkpt>
      <trkpt lat="49.197" lon="2.02564">
        <ele>146.1</ele>
        <time>2023-09-17T00:57:19Z</time>
      </trkpt>
      <trkpt lat="49.19702" lon="2.02552">
        <ele>145.6</ele>
        <time>2023-09-17T00:57:30Z</time>
      </trkpt>
      <trkpt lat="49.19703" lon="2.02536">
        <ele>145</ele>
        <time>2023-09-17T00:57:44Z</time>
      </trkpt>
      <trkpt lat="49.19683" lon="2.02405">
        <ele>144.4</ele>
        <time>2023-09-17T00:59:42Z</time>
      </trkpt>
      <trkpt lat="49.19674" lon="2.0238">
        <ele>144.7</ele>
        <time>2023-09-17T01:00:06Z</time>
      </trkpt>
      <trkpt lat="49.19667" lon="2.02374">
        <ele>145</ele>
        <time>2023-09-17T01:00:17Z</time>
      </trkpt>
      <trkpt lat="49.19657" lon="2.02371">
        <ele>145.7</ele>
        <time>2023-09-17T01:00:31Z</time>
      </trkpt>
      <trkpt lat="49.19635" lon="2.02325">
        <ele>146.8</ele>
        <time>2023-09-17T01:01:20Z</time>
      </trkpt>
      <trkpt lat="49.19633" lon="2.02311">
        <ele>147.3</ele>
        <time>2023-09-17T01:01:33Z</time>
      </trkpt>
      <trkpt lat="49.19661" lon="2.02244">
        <ele>152.3</ele>
        <time>2023-09-17T01:02:42Z</time>
      </trkpt>
      <trkpt lat="49.19663" lon="2.0221">
        <ele>154.9</ele>
        <time>2023-09-17T01:03:12Z</time>
      </trkpt>
      <trkpt lat="49.1968" lon="2.02143">
        <ele>159.3</ele>
        <time>2023-09-17T01:04:15Z</time>
      </trkpt>
      <trkpt lat="49.19683" lon="2.02126">
        <ele>159.7</ele>
        <time>2023-09-17T01:04:30Z</time>
      </trkpt>
      <trkpt lat="49.19675" lon="2.02092">
        <ele>160.5</ele>
        <time>2023-09-17T01:05:02Z</time>
      </trkpt>
      <trkpt lat="49.19666" lon="2.02084">
        <ele>161</ele>
        <time>2023-09-17T01:05:16Z</time>
      </trkpt>
      <trkpt lat="49.19608" lon="2.02081">
        <ele>163.1</ele>
        <time>2023-09-17T01:06:33Z</time>
      </trkpt>
      <trkpt lat="49.19585" lon="2.02088">
        <ele>163.8</ele>
        <time>2023-09-17T01:07:04Z</time>
      </trkpt>
      <trkpt lat="49.19558" lon="2.02109">
        <ele>163.9</ele>
        <time>2023-09-17T01:07:45Z</time>
      </trkpt>
      <trkpt lat="49.19527" lon="2.02126">
        <ele>162.9</ele>
        <time>2023-09-17T01:08:29Z</time>
      </trkpt>
      <trkpt lat="49.19515" lon="2.02129">
        <ele>162.7</ele>
        <time>2023-09-17T01:08:45Z</time>
      </trkpt>
      <trkpt lat="49.19497" lon="2.02124">
        <ele>163.1</ele>
        <time>2023-09-17T01:09:09Z</time>
      </trkpt>
      <trkpt lat="49.19457" lon="2.02098">
        <ele>165.3</ele>
        <time>2023-09-17T01:10:07Z</time>
      </trkpt>
      <trkpt lat="49.1941" lon="2.0209">
        <ele>169.7</ele>
        <time>2023-09-17T01:11:10Z</time>
      </trkpt>
      <trkpt lat="49.19394" lon="2.02096">
        <ele>171.4</ele>
        <time>2023-09-17T01:11:32Z</time>
      </trkpt>
      <trkpt lat="49.19281" lon="2.02064">
        <ele>182.7</ele>
        <time>2023-09-17T01:14:06Z</time>
      </trkpt>
      <trkpt lat="49.1919" lon="2.02021">
        <ele>194.6</ele>
        <time>2023-09-17T01:16:13Z</time>
      </trkpt>
      <trkpt lat="49.19132" lon="2.02023">
        <ele>203.2</ele>
        <time>2023-09-17T01:17:30Z</time>
      </trkpt>
      <trkpt lat="49.19085" lon="2.02052">
        <ele>211.6</ele>
        <time>2023-09-17T01:18:38Z</time>
      </trkpt>
      <trkpt lat="49.18946" lon="2.02127">
        <ele>211.2</ele>
        <time>2023-09-17T01:21:55Z</time>
      </trkpt>
      <trkpt lat="49.18872" lon="2.02179">
        <ele>209.7</ele>
        <time>2023-09-17T01:23:43Z</time>
      </trkpt>
      <trkpt lat="49.18815" lon="2.02229">
        <ele>210.6</ele>
        <time>2023-09-17T01:25:11Z</time>
      </trkpt>
      <trkpt lat="49.18773" lon="2.02247">
        <ele>210.8</ele>
        <time>2023-09-17T01:26:09Z</time>
      </trkpt>
      <trkpt lat="49.18687" lon="2.02226">
        <ele>212.4</ele>
        <time>2023-09-17T01:28:05Z</time>
      </trkpt>
      <trkpt lat="49.18566" lon="2.02209">
        <ele>214</ele>
        <time>2023-09-17T01:30:47Z</time>
      </trkpt>
      <trkpt lat="49.18543" lon="2.02188">
        <ele>213.9</ele>
        <time>2023-09-17T01:31:23Z</time>
      </trkpt>
      <trkpt lat="49.18436" lon="2.02164">
        <ele>213.3</ele>
        <time>2023-09-17T01:33:47Z</time>
      </trkpt>
      <trkpt lat="49.18121" lon="2.0167">
        <ele>212</ele>
        <time>2023-09-17T01:43:49Z</time>
      </trkpt>
      <trkpt lat="49.17931" lon="2.01526">
        <ele>213</ele>
        <time>2023-09-17T01:48:32Z</time>
      </trkpt>
      <trkpt lat="49.17922" lon="2.01464">
        <ele>213</ele>
        <time>2023-09-17T01:49:28Z</time>
      </trkpt>
      <trkpt lat="49.17912" lon="2.01453">
        <ele>213</ele>
        <time>2023-09-17T01:49:44Z</time>
      </trkpt>
      <trkpt lat="49.17907" lon="2.01449">
        <ele>213</ele>
        <time>2023-09-17T01:49:52Z</time>
      </trkpt>
      <trkpt lat="49.17885" lon="2.01475">
        <ele>212.8</ele>
        <time>2023-09-17T01:50:29Z</time>
      </trkpt>
      <trkpt lat="49.17857" lon="2.01533">
        <ele>210.1</ele>
        <time>2023-09-17T01:51:32Z</time>
      </trkpt>
      <trkpt lat="49.17853" lon="2.0159">
        <ele>207.5</ele>
        <time>2023-09-17T01:52:22Z</time>
      </trkpt>
      <trkpt lat="49.17849" lon="2.0163">
        <ele>206.1</ele>
        <time>2023-09-17T01:52:57Z</time>
      </trkpt>
      <trkpt lat="49.17827" lon="2.01709">
        <ele>199.6</ele>
        <time>2023-09-17T01:54:12Z</time>
      </trkpt>
      <trkpt lat="49.17814" lon="2.01772">
        <ele>195.6</ele>
        <time>2023-09-17T01:55:10Z</time>
      </trkpt>
      <trkpt lat="49.1781" lon="2.01844">
        <ele>192.5</ele>
        <time>2023-09-17T01:56:13Z</time>
      </trkpt>
      <trkpt lat="49.17803" lon="2.01889">
        <ele>190.5</ele>
        <time>2023-09-17T01:56:53Z</time>
      </trkpt>
      <trkpt lat="49.17749" lon="2.01967">
        <ele>182.9</ele>
        <time>2023-09-17T01:58:32Z</time>
      </trkpt>
      <trkpt lat="49.17742" lon="2.01973">
        <ele>181.8</ele>
        <time>2023-09-17T01:58:43Z</time>
      </trkpt>
      <trkpt lat="49.17749" lon="2.01967">
        <ele>182.9</ele>
        <time>2023-09-17T01:58:54Z</time>
      </trkpt>
      <trkpt lat="49.17729" lon="2.01954">
        <ele>180</ele>
        <time>2023-09-17T01:59:23Z</time>
      </trkpt>
      <trkpt lat="49.17677" lon="2.01784">
        <ele>170.6</ele>
        <time>2023-09-17T02:02:06Z</time>
      </trkpt>
      <trkpt lat="49.17688" lon="2.01699">
        <ele>170.3</ele>
        <time>2023-09-17T02:03:22Z</time>
      </trkpt>
      <trkpt lat="49.17688" lon="2.01668">
        <ele>171</ele>
        <time>2023-09-17T02:03:49Z</time>
      </trkpt>
      <trkpt lat="49.17656" lon="2.0147">
        <ele>176.3</ele>
        <time>2023-09-17T02:06:47Z</time>
      </trkpt>
      <trkpt lat="49.17598" lon="2.0122">
        <ele>170.7</ele>
        <time>2023-09-17T02:10:38Z</time>
      </trkpt>
      <trkpt lat="49.17516" lon="2.01155">
        <ele>179.7</ele>
        <time>2023-09-17T02:12:42Z</time>
      </trkpt>
      <trkpt lat="49.17471" lon="2.01131">
        <ele>180.1</ele>
        <time>2023-09-17T02:13:45Z</time>
      </trkpt>
      <trkpt lat="49.17447" lon="2.01101">
        <ele>183.5</ele>
        <time>2023-09-17T02:14:26Z</time>
      </trkpt>
      <trkpt lat="49.17432" lon="2.01064">
        <ele>186.9</ele>
        <time>2023-09-17T02:15:04Z</time>
      </trkpt>
      <trkpt lat="49.17432" lon="2.01036">
        <ele>188.4</ele>
        <time>2023-09-17T02:15:29Z</time>
      </trkpt>
      <trkpt lat="49.17418" lon="2.00978">
        <ele>185.4</ele>
        <time>2023-09-17T02:16:23Z</time>
      </trkpt>
      <trkpt lat="49.17395" lon="2.00931">
        <ele>182.8</ele>
        <time>2023-09-17T02:17:14Z</time>
      </trkpt>
      <trkpt lat="49.17347" lon="2.00849">
        <ele>187.9</ele>
        <time>2023-09-17T02:18:50Z</time>
      </trkpt>
      <trkpt lat="49.17183" lon="2.00596">
        <ele>170.7</ele>
        <time>2023-09-17T02:24:01Z</time>
      </trkpt>
      <trkpt lat="49.17159" lon="2.00578">
        <ele>169.4</ele>
        <time>2023-09-17T02:24:37Z</time>
      </trkpt>
      <trkpt lat="49.17116" lon="2.00502">
        <ele>165.6</ele>
        <time>2023-09-17T02:26:04Z</time>
      </trkpt>
      <trkpt lat="49.17111" lon="2.00333">
        <ele>170</ele>
        <time>2023-09-17T02:28:32Z</time>
      </trkpt>
      <trkpt lat="49.17109" lon="2.00285">
        <ele>171.6</ele>
        <time>2023-09-17T02:29:14Z</time>
      </trkpt>
      <trkpt lat="49.1707" lon="2.00329">
        <ele>167.6</ele>
        <time>2023-09-17T02:30:18Z</time>
      </trkpt>
      <trkpt lat="49.17027" lon="2.00371">
        <ele>161.6</ele>
        <time>2023-09-17T02:31:27Z</time>
      </trkpt>
      <trkpt lat="49.16968" lon="2.00418">
        <ele>155.6</ele>
        <time>2023-09-17T02:32:55Z</time>
      </trkpt>
      <trkpt lat="49.16901" lon="2.00465">
        <ele>151</ele>
        <time>2023-09-17T02:34:34Z</time>
      </trkpt>
      <trkpt lat="49.16836" lon="2.00513">
        <ele>147.1</ele>
        <time>2023-09-17T02:36:10Z</time>
      </trkpt>
      <trkpt lat="49.1679" lon="2.00554">
        <ele>144.1</ele>
        <time>2023-09-17T02:37:21Z</time>
      </trkpt>
      <trkpt lat="49.16754" lon="2.00576">
        <ele>142.4</ele>
        <time>2023-09-17T02:38:13Z</time>
      </trkpt>
      <trkpt lat="49.16718" lon="2.0059">
        <ele>140.6</ele>
        <time>2023-09-17T02:39:02Z</time>
      </trkpt>
      <trkpt lat="49.16676" lon="2.00589">
        <ele>138.6</ele>
        <time>2023-09-17T02:39:58Z</time>
      </trkpt>
      <trkpt lat="49.16619" lon="2.00564">
        <ele>136.8</ele>
        <time>2023-09-17T02:41:18Z</time>
      </trkpt>
      <trkpt lat="49.16623" lon="2.00583">
        <ele>136.4</ele>
        <time>2023-09-17T02:41:35Z</time>
      </trkpt>
      <trkpt lat="49.16619" lon="2.0056">
        <ele>136.9</ele>
        <time>2023-09-17T02:41:56Z</time>
      </trkpt>
      <trkpt lat="49.16565" lon="2.00541">
        <ele>136.2</ele>
        <time>2023-09-17T02:43:10Z</time>
      </trkpt>
      <trkpt lat="49.16555" lon="2.0054">
        <ele>136</ele>
        <time>2023-09-17T02:43:23Z</time>
      </trkpt>
      <trkpt lat="49.16482" lon="2.00561">
        <ele>136.9</ele>
        <time>2023-09-17T02:45:02Z</time>
      </trkpt>
      <trkpt lat="49.16428" lon="2.00683">
        <ele>138.4</ele>
        <time>2023-09-17T02:47:11Z</time>
      </trkpt>
      <trkpt lat="49.1636" lon="2.008">
        <ele>139.2</ele>
        <time>2023-09-17T02:49:27Z</time>
      </trkpt>
      <trkpt lat="49.16298" lon="2.00914">
        <ele>134.9</ele>
        <time>2023-09-17T02:51:37Z</time>
      </trkpt>
      <trkpt lat="49.16259" lon="2.00964">
        <ele>132.5</ele>
        <time>2023-09-17T02:52:45Z</time>
      </trkpt>
      <trkpt lat="49.16188" lon="2.01021">
        <ele>127.4</ele>
        <time>2023-09-17T02:54:32Z</time>
      </trkpt>
      <trkpt lat="49.16084" lon="2.01138">
        <ele>122</ele>
        <time>2023-09-17T02:57:24Z</time>
      </trkpt>
      <trkpt lat="49.16048" lon="2.01194">
        <ele>127.8</ele>
        <time>2023-09-17T02:58:32Z</time>
      </trkpt>
      <trkpt lat="49.16048" lon="2.01192">
        <ele>127.7</ele>
        <time>2023-09-17T02:58:34Z</time>
      </trkpt>
      <trkpt lat="49.15982" lon="2.00965">
        <ele>129.6</ele>
        <time>2023-09-17T03:02:11Z</time>
      </trkpt>
      <trkpt lat="49.15921" lon="2.00827">
        <ele>132</ele>
        <time>2023-09-17T03:04:36Z</time>
      </trkpt>
      <trkpt lat="49.15881" lon="2.00666">
        <ele>135.1</ele>
        <time>2023-09-17T03:07:07Z</time>
      </trkpt>
      <trkpt lat="49.15748" lon="2.00434">
        <ele>148</ele>
        <time>2023-09-17T03:11:36Z</time>
      </trkpt>
      <trkpt lat="49.15744" lon="2.00416">
        <ele>149.7</ele>
        <time>2023-09-17T03:11:52Z</time>
      </trkpt>
      <trkpt lat="49.15748" lon="2.00402">
        <ele>150.7</ele>
        <time>2023-09-17T03:12:06Z</time>
      </trkpt>
      <trkpt lat="49.15762" lon="2.00378">
        <ele>151.5</ele>
        <time>2023-09-17T03:12:34Z</time>
      </trkpt>
      <trkpt lat="49.15757" lon="2.00365">
        <ele>152.4</ele>
        <time>2023-09-17T03:12:47Z</time>
      </trkpt>
      <trkpt lat="49.15756" lon="2.00367">
        <ele>152.4</ele>
        <time>2023-09-17T03:12:49Z</time>
      </trkpt>
      <trkpt lat="49.15702" lon="2.00432">
        <ele>153.2</ele>
        <time>2023-09-17T03:14:21Z</time>
      </trkpt>
      <trkpt lat="49.15689" lon="2.00479">
        <ele>155.2</ele>
        <time>2023-09-17T03:15:06Z</time>
      </trkpt>
      <trkpt lat="49.15675" lon="2.0056">
        <ele>160.2</ele>
        <time>2023-09-17T03:16:19Z</time>
      </trkpt>
      <trkpt lat="49.15664" lon="2.00596">
        <ele>162.4</ele>
        <time>2023-09-17T03:16:53Z</time>
      </trkpt>
      <trkpt lat="49.15652" lon="2.00617">
        <ele>164</ele>
        <time>2023-09-17T03:17:18Z</time>
      </trkpt>
      <trkpt lat="49.15627" lon="2.00638">
        <ele>165.9</ele>
        <time>2023-09-17T03:17:56Z</time>
      </trkpt>
      <trkpt lat="49.15596" lon="2.00652">
        <ele>165.5</ele>
        <time>2023-09-17T03:18:39Z</time>
      </trkpt>
      <trkpt lat="49.15596" lon="2.00642">
        <ele>166.2</ele>
        <time>2023-09-17T03:18:48Z</time>
      </trkpt>
      <trkpt lat="49.15582" lon="2.00587">
        <ele>169.6</ele>
        <time>2023-09-17T03:19:39Z</time>
      </trkpt>
      <trkpt lat="49.15564" lon="2.00532">
        <ele>175</ele>
        <time>2023-09-17T03:20:33Z</time>
      </trkpt>
      <trkpt lat="49.15504" lon="2.00446">
        <ele>183.2</ele>
        <time>2023-09-17T03:22:22Z</time>
      </trkpt>
      <trkpt lat="49.15454" lon="2.00339">
        <ele>193.4</ele>
        <time>2023-09-17T03:24:17Z</time>
      </trkpt>
      <trkpt lat="49.15449" lon="2.00288">
        <ele>196</ele>
        <time>2023-09-17T03:25:02Z</time>
      </trkpt>
      <trkpt lat="49.1544" lon="2.00254">
        <ele>198.2</ele>
        <time>2023-09-17T03:25:34Z</time>
      </trkpt>
      <trkpt lat="49.15395" lon="2.00136">
        <ele>201</ele>
        <time>2023-09-17T03:27:34Z</time>
      </trkpt>
      <trkpt lat="49.15392" lon="2.0014">
        <ele>201</ele>
        <time>2023-09-17T03:27:39Z</time>
      </trkpt>
      <trkpt lat="49.15395" lon="2.00136">
        <ele>201</ele>
        <time>2023-09-17T03:27:44Z</time>
      </trkpt>
      <trkpt lat="49.15322" lon="1.99933">
        <ele>199.8</ele>
        <time>2023-09-17T03:31:06Z</time>
      </trkpt>
      <trkpt lat="49.15145" lon="1.99492">
        <ele>192.4</ele>
        <time>2023-09-17T03:38:38Z</time>
      </trkpt>
      <trkpt lat="49.15133" lon="1.99462">
        <ele>191.4</ele>
        <time>2023-09-17T03:39:09Z</time>
      </trkpt>
      <trkpt lat="49.15133" lon="1.99472">
        <ele>191.4</ele>
        <time>2023-09-17T03:39:17Z</time>
      </trkpt>
      <trkpt lat="49.15167" lon="1.99686">
        <ele>195.3</ele>
        <time>2023-09-17T03:42:30Z</time>
      </trkpt>
      <trkpt lat="49.15152" lon="1.99692">
        <ele>194.5</ele>
        <time>2023-09-17T03:42:50Z</time>
      </trkpt>
      <trkpt lat="49.15124" lon="1.99725">
        <ele>192.4</ele>
        <time>2023-09-17T03:43:37Z</time>
      </trkpt>
      <trkpt lat="49.15118" lon="1.99737">
        <ele>191.7</ele>
        <time>2023-09-17T03:43:51Z</time>
      </trkpt>
      <trkpt lat="49.15122" lon="1.99761">
        <ele>192.4</ele>
        <time>2023-09-17T03:44:12Z</time>
      </trkpt>
      <trkpt lat="49.15128" lon="1.99769">
        <ele>193.1</ele>
        <time>2023-09-17T03:44:23Z</time>
      </trkpt>
      <trkpt lat="49.15137" lon="1.99774">
        <ele>193.9</ele>
        <time>2023-09-17T03:44:36Z</time>
      </trkpt>
      <trkpt lat="49.1513" lon="1.9979">
        <ele>193.4</ele>
        <time>2023-09-17T03:44:52Z</time>
      </trkpt>
      <trkpt lat="49.15132" lon="1.99814">
        <ele>193.5</ele>
        <time>2023-09-17T03:45:14Z</time>
      </trkpt>
      <trkpt lat="49.15126" lon="1.99836">
        <ele>193.2</ele>
        <time>2023-09-17T03:45:34Z</time>
      </trkpt>
      <trkpt lat="49.15129" lon="1.99861">
        <ele>194.3</ele>
        <time>2023-09-17T03:45:57Z</time>
      </trkpt>
      <trkpt lat="49.15127" lon="1.99885">
        <ele>194.1</ele>
        <time>2023-09-17T03:46:18Z</time>
      </trkpt>
      <trkpt lat="49.15091" lon="1.99937">
        <ele>192.6</ele>
        <time>2023-09-17T03:47:24Z</time>
      </trkpt>
      <trkpt lat="49.15078" lon="1.9996">
        <ele>192.1</ele>
        <time>2023-09-17T03:47:50Z</time>
      </trkpt>
      <trkpt lat="49.15072" lon="1.99992">
        <ele>192.1</ele>
        <time>2023-09-17T03:48:19Z</time>
      </trkpt>
      <trkpt lat="49.15037" lon="2.00001">
        <ele>188.3</ele>
        <time>2023-09-17T03:49:07Z</time>
      </trkpt>
      <trkpt lat="49.14999" lon="1.99992">
        <ele>182.5</ele>
        <time>2023-09-17T03:49:58Z</time>
      </trkpt>
      <trkpt lat="49.14999" lon="1.99971">
        <ele>181.9</ele>
        <time>2023-09-17T03:50:16Z</time>
      </trkpt>
      <trkpt lat="49.14991" lon="1.99962">
        <ele>180.6</ele>
        <time>2023-09-17T03:50:30Z</time>
      </trkpt>
      <trkpt lat="49.14968" lon="1.99991">
        <ele>177.5</ele>
        <time>2023-09-17T03:51:09Z</time>
      </trkpt>
      <trkpt lat="49.14892" lon="2.00139">
        <ele>167.4</ele>
        <time>2023-09-17T03:53:54Z</time>
      </trkpt>
      <trkpt lat="49.14864" lon="2.00114">
        <ele>165.3</ele>
        <time>2023-09-17T03:54:37Z</time>
      </trkpt>
      <trkpt lat="49.14855" lon="2.00079">
        <ele>164.5</ele>
        <time>2023-09-17T03:55:10Z</time>
      </trkpt>
      <trkpt lat="49.14829" lon="2.00068">
        <ele>161.7</ele>
        <time>2023-09-17T03:55:46Z</time>
      </trkpt>
      <trkpt lat="49.14869" lon="1.9995">
        <ele>164.3</ele>
        <time>2023-09-17T03:57:42Z</time>
      </trkpt>
      <trkpt lat="49.14898" lon="1.99832">
        <ele>160.9</ele>
        <time>2023-09-17T03:59:32Z</time>
      </trkpt>
      <trkpt lat="49.149" lon="1.99757">
        <ele>157.2</ele>
        <time>2023-09-17T04:00:37Z</time>
      </trkpt>
      <trkpt lat="49.14861" lon="1.99639">
        <ele>156</ele>
        <time>2023-09-17T04:02:33Z</time>
      </trkpt>
      <trkpt lat="49.14777" lon="1.99415">
        <ele>158.9</ele>
        <time>2023-09-17T04:06:18Z</time>
      </trkpt>
      <trkpt lat="49.14768" lon="1.99352">
        <ele>157.9</ele>
        <time>2023-09-17T04:07:14Z</time>
      </trkpt>
      <trkpt lat="49.1478" lon="1.99289">
        <ele>158.2</ele>
        <time>2023-09-17T04:08:12Z</time>
      </trkpt>
      <trkpt lat="49.14798" lon="1.99246">
        <ele>159</ele>
        <time>2023-09-17T04:08:56Z</time>
      </trkpt>
      <trkpt lat="49.14801" lon="1.99221">
        <ele>157.8</ele>
        <time>2023-09-17T04:09:18Z</time>
      </trkpt>
      <trkpt lat="49.14807" lon="1.99157">
        <ele>154.8</ele>
        <time>2023-09-17T04:10:15Z</time>
      </trkpt>
      <trkpt lat="49.1477" lon="1.99129">
        <ele>151.3</ele>
        <time>2023-09-17T04:11:10Z</time>
      </trkpt>
      <trkpt lat="49.14665" lon="1.98957">
        <ele>137.3</ele>
        <time>2023-09-17T04:14:35Z</time>
      </trkpt>
      <trkpt lat="49.14628" lon="1.98901">
        <ele>132.7</ele>
        <time>2023-09-17T04:15:45Z</time>
      </trkpt>
      <trkpt lat="49.14613" lon="1.98847">
        <ele>129.7</ele>
        <time>2023-09-17T04:16:36Z</time>
      </trkpt>
      <trkpt lat="49.1459" lon="1.98803">
        <ele>128.2</ele>
        <time>2023-09-17T04:17:25Z</time>
      </trkpt>
      <trkpt lat="49.1454" lon="1.98713">
        <ele>124.7</ele>
        <time>2023-09-17T04:19:08Z</time>
      </trkpt>
      <trkpt lat="49.14529" lon="1.98703">
        <ele>124.1</ele>
        <time>2023-09-17T04:19:25Z</time>
      </trkpt>
      <trkpt lat="49.14506" lon="1.98632">
        <ele>123.2</ele>
        <time>2023-09-17T04:20:34Z</time>
      </trkpt>
      <trkpt lat="49.14493" lon="1.98578">
        <ele>122.6</ele>
        <time>2023-09-17T04:21:25Z</time>
      </trkpt>
      <trkpt lat="49.14482" lon="1.9852">
        <ele>121.7</ele>
        <time>2023-09-17T04:22:17Z</time>
      </trkpt>
      <trkpt lat="49.14473" lon="1.98471">
        <ele>121</ele>
        <time>2023-09-17T04:23:02Z</time>
      </trkpt>
      <trkpt lat="49.14468" lon="1.98424">
        <ele>120.2</ele>
        <time>2023-09-17T04:23:43Z</time>
      </trkpt>
      <trkpt lat="49.14469" lon="1.98396">
        <ele>119.3</ele>
        <time>2023-09-17T04:24:08Z</time>
      </trkpt>
      <trkpt lat="49.14471" lon="1.98386">
        <ele>119</ele>
        <time>2023-09-17T04:24:17Z</time>
      </trkpt>
      <trkpt lat="49.14483" lon="1.98362">
        <ele>119</ele>
        <time>2023-09-17T04:24:43Z</time>
      </trkpt>
      <trkpt lat="49.14479" lon="1.9835">
        <ele>118.4</ele>
        <time>2023-09-17T04:24:55Z</time>
      </trkpt>
      <trkpt lat="49.14477" lon="1.98334">
        <ele>117.4</ele>
        <time>2023-09-17T04:25:09Z</time>
      </trkpt>
      <trkpt lat="49.14473" lon="1.98311">
        <ele>116.3</ele>
        <time>2023-09-17T04:25:30Z</time>
      </trkpt>
      <trkpt lat="49.14484" lon="1.98299">
        <ele>116.8</ele>
        <time>2023-09-17T04:25:48Z</time>
      </trkpt>
      <trkpt lat="49.14493" lon="1.98274">
        <ele>117.4</ele>
        <time>2023-09-17T04:26:13Z</time>
      </trkpt>
      <trkpt lat="49.14491" lon="1.98261">
        <ele>116.9</ele>
        <time>2023-09-17T04:26:25Z</time>
      </trkpt>
      <trkpt lat="49.14493" lon="1.98274">
        <ele>117.4</ele>
        <time>2023-09-17T04:26:36Z</time>
      </trkpt>
      <trkpt lat="49.14514" lon="1.98263">
        <ele>117.7</ele>
        <time>2023-09-17T04:27:06Z</time>
      </trkpt>
      <trkpt lat="49.14527" lon="1.9825">
        <ele>118</ele>
        <time>2023-09-17T04:27:27Z</time>
      </trkpt>
      <trkpt lat="49.14591" lon="1.98293">
        <ele>117</ele>
        <time>2023-09-17T04:29:00Z</time>
      </trkpt>
      <trkpt lat="49.14617" lon="1.98341">
        <ele>117.4</ele>
        <time>2023-09-17T04:29:54Z</time>
      </trkpt>
    </trkseg>
  </trk>
</gpx>